Time;durP1;ratioP1;P1;durP2;ratioP2;P2;SDS_P1;SDS_P2;PMS_P1;PMS_P2;Temp;Humidity;BMP_temperature;BMP_pressure;BME280_temperature;BME280_humidity;BME280_pressure;Samples;Min_cycle;Max_cycle;Signal;HPM_P1;HPM_P2
2021/07/23 00:01:00;;;;;;;6.00;5.40;;;25.30;71.40;;;;;;4991005;28;20210;-46
2021/07/23 00:03:27;;;;;;;5.78;5.18;;;25.30;71.40;;;;;;4990055;28;20207;-49
2021/07/23 00:05:53;;;;;;;5.57;5.07;;;25.30;71.50;;;;;;4990574;28;20228;-43
2021/07/23 00:08:19;;;;;;;5.28;4.82;;;25.30;71.50;;;;;;4990714;28;20258;-43
2021/07/23 00:10:46;;;;;;;5.80;5.30;;;25.30;71.50;;;;;;4992491;28;20569;-45
2021/07/23 00:13:12;;;;;;;5.50;5.00;;;25.30;71.30;;;;;;4994887;28;20690;-43
2021/07/23 00:15:39;;;;;;;5.93;5.32;;;25.30;71.40;;;;;;4993085;28;20753;-45
2021/07/23 00:18:05;;;;;;;6.20;5.60;;;25.30;71.40;;;;;;4994434;28;20196;-46
2021/07/23 00:20:31;;;;;;;5.47;4.97;;;25.30;71.40;;;;;;4993240;28;20206;-46
2021/07/23 00:22:58;;;;;;;5.63;5.13;;;25.30;71.40;;;;;;4992252;28;20204;-51
2021/07/23 00:25:25;;;;;;;5.43;4.93;;;25.30;71.40;;;;;;4993539;28;20220;-45
2021/07/23 00:27:51;;;;;;;5.32;4.82;;;25.30;71.50;;;;;;4994784;28;20318;-48
2021/07/23 00:30:18;;;;;;;5.95;5.40;;;25.30;71.50;;;;;;4994025;28;20192;-47
2021/07/23 00:32:44;;;;;;;5.40;4.90;;;25.30;71.50;;;;;;4993480;28;20204;-44
2021/07/23 00:35:10;;;;;;;5.32;4.82;;;25.30;71.60;;;;;;4994023;28;20196;-48
2021/07/23 00:37:37;;;;;;;6.18;5.57;;;25.30;71.50;;;;;;4992840;28;20573;-47
2021/07/23 00:40:03;;;;;;;5.38;4.88;;;25.30;71.50;;;;;;4993145;28;20656;-45
2021/07/23 00:42:30;;;;;;;5.55;5.03;;;25.30;71.60;;;;;;4991877;28;20623;-46
2021/07/23 00:44:56;;;;;;;6.50;4.85;;;25.30;71.50;;;;;;4994244;28;20676;-44
2021/07/23 00:47:23;;;;;;;5.53;5.03;;;25.30;71.60;;;;;;4993203;28;20234;-46
2021/07/23 00:49:51;;;;;;;5.40;5.00;;;25.30;71.60;;;;;;4993314;28;20222;-45
2021/07/23 00:52:18;;;;;;;5.65;5.15;;;25.30;71.50;;;;;;4993119;28;20228;-43
2021/07/23 00:54:44;;;;;;;5.53;5.00;;;25.30;71.50;;;;;;4994435;28;20202;-46
2021/07/23 00:57:11;;;;;;;5.40;5.00;;;25.30;71.50;;;;;;4993362;28;20232;-45
2021/07/23 00:59:37;;;;;;;5.30;4.90;;;25.30;71.50;;;;;;4993340;28;20590;-43
2021/07/23 01:02:04;;;;;;;5.70;5.20;;;25.30;71.60;;;;;;4992956;28;20262;-45
2021/07/23 01:04:30;;;;;;;5.50;5.00;;;25.30;71.60;;;;;;4992871;28;20200;-48
2021/07/23 01:06:56;;;;;;;5.78;5.28;;;25.30;71.60;;;;;;4993228;28;20249;-47
2021/07/23 01:09:23;;;;;;;5.13;4.72;;;25.30;71.50;;;;;;4992845;28;20211;-47
2021/07/23 01:11:49;;;;;;;5.70;5.20;;;25.30;71.60;;;;;;4987499;28;20214;-43
2021/07/23 01:14:16;;;;;;;4.95;4.47;;;25.30;71.60;;;;;;4993651;28;20200;-43
2021/07/23 01:16:44;;;;;;;5.38;4.88;;;25.30;71.60;;;;;;4992069;28;20219;-48
2021/07/23 01:19:10;;;;;;;6.68;5.63;;;25.30;71.60;;;;;;4993923;28;20204;-45
2021/07/23 01:21:37;;;;;;;6.13;5.32;;;25.30;71.60;;;;;;4992737;28;20201;-46
2021/07/23 01:24:03;;;;;;;5.72;5.18;;;25.30;71.70;;;;;;4992939;28;20226;-45
2021/07/23 01:26:29;;;;;;;5.35;4.88;;;25.30;71.60;;;;;;4990339;28;20559;-48
2021/07/23 01:28:56;;;;;;;5.32;4.85;;;25.30;71.60;;;;;;4993047;28;20591;-44
2021/07/23 01:31:22;;;;;;;5.70;5.20;;;25.20;71.60;;;;;;4991467;28;20283;-46
2021/07/23 01:33:49;;;;;;;4.82;4.43;;;25.30;71.70;;;;;;4983765;28;20573;-43
2021/07/23 01:36:15;;;;;;;5.00;4.60;;;25.20;71.60;;;;;;4992711;28;20228;-48
2021/07/23 01:38:42;;;;;;;5.28;4.78;;;25.20;71.60;;;;;;4992763;28;20214;-46
2021/07/23 01:41:08;;;;;;;5.68;5.18;;;25.20;71.70;;;;;;4992383;28;20196;-44
2021/07/23 01:43:34;;;;;;;5.05;4.57;;;25.30;71.60;;;;;;4991607;28;20206;-45
2021/07/23 01:46:01;;;;;;;5.45;4.95;;;25.30;71.70;;;;;;4992970;28;20223;-43
2021/07/23 01:48:27;;;;;;;5.13;4.63;;;25.20;71.60;;;;;;4991505;28;20651;-44
2021/07/23 01:50:54;;;;;;;5.93;5.03;;;25.30;71.70;;;;;;4991941;28;20694;-43
2021/07/23 01:53:20;;;;;;;5.35;4.72;;;25.30;71.60;;;;;;4992651;28;20663;-47
2021/07/23 01:55:47;;;;;;;5.28;4.78;;;25.20;71.60;;;;;;4992905;28;20224;-44
2021/07/23 01:58:13;;;;;;;5.43;4.93;;;25.30;71.60;;;;;;4991608;28;20234;-43
2021/07/23 02:00:39;;;;;;;5.40;4.90;;;25.20;71.70;;;;;;4993132;28;20210;-45
2021/07/23 02:03:06;;;;;;;5.40;4.90;;;25.20;71.60;;;;;;4990941;28;20562;-44
2021/07/23 02:05:32;;;;;;;6.20;5.22;;;25.20;71.70;;;;;;4972476;28;20556;-43
2021/07/23 02:07:59;;;;;;;4.65;4.25;;;25.20;71.70;;;;;;4987735;28;20698;-44
2021/07/23 02:10:25;;;;;;;11.25;5.18;;;25.20;71.70;;;;;;4992025;28;20686;-45
2021/07/23 02:12:52;;;;;;;5.47;4.97;;;25.20;71.70;;;;;;4991749;28;20208;-45
2021/07/23 02:15:18;;;;;;;5.18;4.75;;;25.20;71.80;;;;;;4993135;28;20237;-45
2021/07/23 02:17:44;;;;;;;5.05;4.55;;;25.20;71.70;;;;;;4991567;28;20199;-49
2021/07/23 02:20:11;;;;;;;5.38;4.88;;;25.20;71.80;;;;;;4992295;28;20222;-46
2021/07/23 02:22:38;;;;;;;5.28;4.78;;;25.20;71.80;;;;;;4991390;28;20211;-47
2021/07/23 02:25:04;;;;;;;4.75;4.35;;;25.20;72.00;;;;;;4992774;28;20227;-48
2021/07/23 02:27:33;;;;;;;5.18;4.68;;;25.20;72.00;;;;;;4991340;28;20226;-51
2021/07/23 02:30:00;;;;;;;5.40;4.90;;;25.20;71.90;;;;;;4991857;28;20211;-47
2021/07/23 02:32:26;;;;;;;5.75;4.65;;;25.20;72.00;;;;;;4990581;28;20295;-46
2021/07/23 02:34:53;;;;;;;4.93;4.53;;;25.20;72.00;;;;;;4992548;28;20210;-47
2021/07/23 02:37:19;;;;;;;5.18;4.70;;;25.20;72.10;;;;;;4991259;28;20203;-48
2021/07/23 02:39:46;;;;;;;5.15;4.75;;;25.30;72.10;;;;;;4991277;28;20230;-44
2021/07/23 02:42:12;;;;;;;5.22;4.75;;;25.20;71.90;;;;;;4990174;28;20207;-46
2021/07/23 02:44:39;;;;;;;5.43;4.93;;;25.20;71.90;;;;;;4989100;28;20210;-47
2021/07/23 02:47:05;;;;;;;5.38;4.88;;;25.20;72.00;;;;;;4989746;28;20210;-49
2021/07/23 02:49:32;;;;;;;4.95;4.55;;;25.20;72.00;;;;;;4991732;28;20204;-48
2021/07/23 02:51:58;;;;;;;5.22;4.72;;;25.20;72.10;;;;;;4991212;28;20218;-50
2021/07/23 02:54:24;;;;;;;5.03;4.53;;;25.20;72.10;;;;;;4991371;28;20191;-49
2021/07/23 02:56:51;;;;;;;4.63;4.22;;;25.20;72.20;;;;;;4990412;28;20242;-48
2021/07/23 02:59:17;;;;;;;4.93;4.53;;;25.20;72.10;;;;;;4991441;28;20207;-51
2021/07/23 03:01:44;;;;;;;5.20;4.70;;;25.20;72.00;;;;;;4991513;28;20204;-45
2021/07/23 03:04:10;;;;;;;5.07;4.57;;;25.20;72.00;;;;;;4991530;28;20200;-48
2021/07/23 03:06:37;;;;;;;5.13;4.60;;;25.20;72.00;;;;;;4991038;28;20226;-46
2021/07/23 03:09:03;;;;;;;5.20;4.70;;;25.20;72.10;;;;;;4991342;28;20227;-47
2021/07/23 03:11:29;;;;;;;5.10;4.60;;;25.20;71.90;;;;;;4989359;28;20221;-45
2021/07/23 03:13:58;;;;;;;6.05;4.68;;;25.20;71.90;;;;;;4983586;28;20555;-44
2021/07/23 03:16:25;;;;;;;5.38;4.57;;;25.20;72.10;;;;;;4990526;28;20227;-44
2021/07/23 03:18:51;;;;;;;5.50;5.00;;;25.20;72.10;;;;;;4991141;28;20201;-44
2021/07/23 03:21:18;;;;;;;4.95;4.45;;;25.20;72.20;;;;;;4990326;28;20230;-43
2021/07/23 03:23:44;;;;;;;4.57;4.15;;;25.20;72.20;;;;;;4991703;28;20226;-46
2021/07/23 03:26:10;;;;;;;5.47;4.97;;;25.20;72.20;;;;;;4990525;28;20223;-44
2021/07/23 03:28:37;;;;;;;5.38;4.88;;;25.20;72.10;;;;;;4990301;28;20586;-44
2021/07/23 03:31:03;;;;;;;4.45;4.05;;;25.20;72.10;;;;;;4991235;28;20851;-45
2021/07/23 03:33:30;;;;;;;4.60;4.20;;;25.20;72.10;;;;;;4991595;28;20228;-43
2021/07/23 03:35:56;;;;;;;4.38;3.97;;;25.20;72.20;;;;;;4990052;28;20587;-47
2021/07/23 03:38:23;;;;;;;5.68;5.10;;;25.20;72.10;;;;;;4990129;28;20666;-48
2021/07/23 03:40:49;;;;;;;5.28;4.78;;;25.20;72.30;;;;;;4990424;28;20680;-44
2021/07/23 03:43:15;;;;;;;4.90;4.50;;;25.20;72.10;;;;;;4976805;28;20214;-50
2021/07/23 03:45:43;;;;;;;5.25;4.75;;;25.20;72.10;;;;;;4985552;28;20232;-47
2021/07/23 03:48:09;;;;;;;5.68;4.75;;;25.20;72.10;;;;;;4994608;28;20277;-46
2021/07/23 03:50:35;;;;;;;5.07;4.57;;;25.20;72.20;;;;;;4995130;28;20211;-46
2021/07/23 03:53:02;;;;;;;4.80;4.40;;;25.20;72.20;;;;;;4993621;28;20242;-45
2021/07/23 03:55:28;;;;;;;5.60;5.10;;;25.20;72.00;;;;;;4995272;28;20579;-45
2021/07/23 03:57:55;;;;;;;5.38;4.88;;;25.20;72.00;;;;;;4994234;28;20579;-45
2021/07/23 04:00:21;;;;;;;5.10;4.60;;;25.20;72.00;;;;;;4994870;28;20698;-45
2021/07/23 04:02:48;;;;;;;5.40;4.90;;;25.20;72.00;;;;;;4993288;28;20204;-47
2021/07/23 04:05:14;;;;;;;5.30;4.78;;;25.20;72.10;;;;;;4994829;28;20228;-48
2021/07/23 04:07:40;;;;;;;5.15;4.68;;;25.20;72.10;;;;;;4993010;28;20200;-44
2021/07/23 04:10:07;;;;;;;4.95;4.43;;;25.20;72.10;;;;;;4995109;28;20204;-44
2021/07/23 04:12:33;;;;;;;4.85;4.32;;;25.20;72.20;;;;;;4994471;28;20235;-44
2021/07/23 04:15:01;;;;;;;5.13;4.63;;;25.20;72.20;;;;;;4995210;28;20924;-47
2021/07/23 04:17:27;;;;;;;4.70;4.30;;;25.20;72.20;;;;;;4993217;28;20202;-44
2021/07/23 04:19:54;;;;;;;5.10;4.60;;;25.20;72.20;;;;;;4994597;28;20196;-47
2021/07/23 04:22:20;;;;;;;4.85;4.35;;;25.20;72.20;;;;;;4993730;28;20725;-47
2021/07/23 04:24:46;;;;;;;4.95;4.53;;;25.20;72.20;;;;;;4992764;28;20230;-47
2021/07/23 04:27:13;;;;;;;4.72;4.32;;;25.20;72.10;;;;;;4994535;28;20211;-48
2021/07/23 04:29:39;;;;;;;4.80;4.35;;;25.20;72.20;;;;;;4993552;28;20297;-45
2021/07/23 04:32:06;;;;;;;4.95;4.55;;;25.20;72.30;;;;;;4994230;28;20251;-44
2021/07/23 04:34:32;;;;;;;4.93;4.45;;;25.20;72.20;;;;;;4992930;28;20204;-44
2021/07/23 04:37:00;;;;;;;4.75;4.25;;;25.20;72.20;;;;;;4994270;28;20208;-45
2021/07/23 04:39:27;;;;;;;4.90;4.47;;;25.20;72.10;;;;;;4993838;28;20250;-47
2021/07/23 04:41:53;;;;;;;4.82;4.28;;;25.20;72.20;;;;;;4993617;28;20214;-44
2021/07/23 04:44:20;;;;;;;4.68;4.28;;;25.20;72.20;;;;;;4992005;28;20214;-45
2021/07/23 04:46:46;;;;;;;5.15;4.50;;;25.20;72.20;;;;;;4994129;28;20207;-46
2021/07/23 04:49:13;;;;;;;4.88;4.47;;;25.20;72.20;;;;;;4993291;28;20239;-46
2021/07/23 04:51:39;;;;;;;4.65;4.25;;;25.20;72.10;;;;;;4992740;28;20216;-47
2021/07/23 04:54:05;;;;;;;5.65;5.15;;;25.20;72.20;;;;;;4993617;28;20203;-46
2021/07/23 04:56:32;;;;;;;4.72;4.32;;;25.20;72.10;;;;;;4993188;28;20234;-46
2021/07/23 04:58:58;;;;;;;5.50;4.28;;;25.20;72.10;;;;;;4992608;28;20214;-47
2021/07/23 05:01:25;;;;;;;4.72;4.18;;;25.20;72.20;;;;;;4992737;28;20216;-44
2021/07/23 05:03:51;;;;;;;5.20;4.70;;;25.20;72.20;;;;;;4993265;28;20202;-46
2021/07/23 05:06:18;;;;;;;4.97;4.47;;;25.20;72.10;;;;;;4994073;28;20228;-46
2021/07/23 05:08:44;;;;;;;4.57;4.13;;;25.20;72.20;;;;;;4992960;28;20235;-46
2021/07/23 05:11:10;;;;;;;5.40;4.93;;;25.20;72.10;;;;;;4993119;28;20208;-49
2021/07/23 05:13:37;;;;;;;4.72;4.32;;;25.20;72.20;;;;;;4988858;28;20206;-45
2021/07/23 05:16:03;;;;;;;5.25;4.75;;;25.20;72.30;;;;;;4992570;28;20239;-44
2021/07/23 05:18:30;;;;;;;5.38;4.82;;;25.20;72.20;;;;;;4993487;28;20196;-44
2021/07/23 05:20:56;;;;;;;4.47;4.05;;;25.20;72.00;;;;;;4993595;28;20226;-45
2021/07/23 05:23:23;;;;;;;4.45;4.05;;;25.20;72.20;;;;;;4991824;28;20593;-44
2021/07/23 05:25:49;;;;;;;5.43;4.93;;;25.20;72.20;;;;;;4993809;28;20713;-44
2021/07/23 05:28:15;;;;;;;5.05;4.47;;;25.20;72.20;;;;;;4992244;28;20223;-44
2021/07/23 05:30:42;;;;;;;4.97;4.47;;;25.20;72.10;;;;;;4993209;28;20214;-46
2021/07/23 05:33:08;;;;;;;5.18;4.68;;;25.20;72.20;;;;;;4990261;28;20225;-47
2021/07/23 05:35:35;;;;;;;5.03;4.53;;;25.20;72.10;;;;;;4989963;28;20274;-44
2021/07/23 05:38:01;;;;;;;4.65;4.25;;;25.20;72.10;;;;;;4993295;28;20221;-45
2021/07/23 05:40:28;;;;;;;5.20;4.70;;;25.20;72.10;;;;;;4981891;28;20208;-46
2021/07/23 05:42:54;;;;;;;4.70;4.30;;;25.20;72.00;;;;;;4977147;28;20199;-49
2021/07/23 05:45:21;;;;;;;5.05;4.55;;;25.20;72.00;;;;;;4991036;28;20270;-49
2021/07/23 05:47:47;;;;;;;5.28;4.78;;;25.20;72.00;;;;;;4991746;28;20199;-48
2021/07/23 05:50:13;;;;;;;5.05;4.63;;;25.20;72.00;;;;;;4992557;28;20228;-44
2021/07/23 05:52:40;;;;;;;4.47;4.07;;;25.20;71.90;;;;;;4992375;28;20207;-47
2021/07/23 05:55:06;;;;;;;5.47;4.57;;;25.20;72.00;;;;;;4992234;28;20219;-47
2021/07/23 05:57:33;;;;;;;4.30;3.90;;;25.20;72.00;;;;;;4990566;28;20200;-45
2021/07/23 05:59:59;;;;;;;4.53;4.13;;;25.20;71.90;;;;;;4991064;28;20202;-47
2021/07/23 06:02:25;;;;;;;4.97;4.57;;;25.20;71.90;;;;;;4993008;28;20203;-47
2021/07/23 06:04:52;;;;;;;4.78;4.38;;;25.20;71.90;;;;;;4992848;28;20224;-49
2021/07/23 06:07:20;;;;;;;5.18;4.60;;;25.20;71.80;;;;;;4990023;28;20206;-50
2021/07/23 06:09:46;;;;;;;5.15;4.75;;;25.20;72.60;;;;;;4991202;28;20263;-44
2021/07/23 06:12:13;;;;;;;4.93;4.47;;;25.20;71.90;;;;;;4991874;28;20210;-46
2021/07/23 06:14:39;;;;;;;4.47;4.07;;;25.20;71.80;;;;;;4992641;28;20223;-47
2021/07/23 06:17:05;;;;;;;5.05;4.55;;;25.20;71.80;;;;;;4991297;28;20215;-46
2021/07/23 06:19:32;;;;;;;4.82;4.43;;;25.20;71.80;;;;;;4991190;28;20208;-44
2021/07/23 06:21:58;;;;;;;5.10;4.60;;;25.30;71.90;;;;;;4992107;28;20211;-45
2021/07/23 06:24:25;;;;;;;4.57;4.18;;;25.20;71.90;;;;;;4991506;28;20296;-44
2021/07/23 06:26:51;;;;;;;4.55;4.15;;;25.20;71.90;;;;;;4992337;28;20282;-45
2021/07/23 06:29:18;;;;;;;4.80;4.40;;;25.20;71.70;;;;;;4990538;28;20253;-47
2021/07/23 06:31:44;;;;;;;4.88;4.40;;;25.20;71.80;;;;;;4991323;28;20258;-44
2021/07/23 06:34:11;;;;;;;4.55;4.15;;;25.30;72.00;;;;;;4990658;28;20202;-44
2021/07/23 06:36:37;;;;;;;6.68;5.35;;;25.30;72.10;;;;;;4991387;28;20207;-44
2021/07/23 06:39:04;;;;;;;5.40;4.47;;;25.30;72.30;;;;;;4990070;28;20239;-44
2021/07/23 06:41:30;;;;;;;4.68;4.00;;;25.30;72.30;;;;;;4989816;28;20206;-47
2021/07/23 06:43:57;;;;;;;4.93;4.22;;;25.20;72.30;;;;;;4991846;28;20199;-49
2021/07/23 06:46:23;;;;;;;4.50;4.10;;;25.30;72.30;;;;;;4989043;28;20642;-44
2021/07/23 06:48:50;;;;;;;4.57;4.10;;;25.30;72.30;;;;;;4989711;28;20703;-44
2021/07/23 06:51:17;;;;;;;5.70;4.40;;;25.30;72.30;;;;;;4991316;28;20215;-44
2021/07/23 06:53:43;;;;;;;5.15;4.57;;;25.30;72.30;;;;;;4991237;28;20266;-46
2021/07/23 06:56:10;;;;;;;4.78;4.25;;;25.30;72.30;;;;;;4991077;28;20223;-47
2021/07/23 06:58:36;;;;;;;6.10;4.07;;;25.30;72.30;;;;;;4989961;28;20215;-46
2021/07/23 07:01:02;;;;;;;5.00;4.40;;;25.30;72.30;;;;;;4990673;28;20204;-46
2021/07/23 07:03:29;;;;;;;5.55;4.40;;;25.30;72.30;;;;;;4991204;28;20228;-44
2021/07/23 07:05:58;;;;;;;6.20;4.75;;;25.30;72.30;;;;;;4990714;28;20216;-50
2021/07/23 07:08:24;;;;;;;7.30;4.93;;;25.30;72.50;;;;;;4990460;28;20199;-44
2021/07/23 07:10:51;;;;;;;6.00;4.25;;;25.30;72.40;;;;;;4990723;28;20204;-51
2021/07/23 07:13:17;;;;;;;6.47;4.85;;;25.30;72.40;;;;;;4987943;28;20227;-45
2021/07/23 07:15:44;;;;;;;8.20;5.95;;;25.30;72.90;;;;;;4990907;28;20239;-47
2021/07/23 07:18:10;;;;;;;10.35;7.53;;;25.30;72.90;;;;;;4991183;28;20199;-52
2021/07/23 07:20:37;;;;;;;13.98;9.95;;;25.20;72.30;;;;;;4992947;28;20203;-49
2021/07/23 07:23:03;;;;;;;12.27;9.23;;;25.00;71.90;;;;;;4998827;28;20203;-45
2021/07/23 07:25:31;;;;;;;14.80;9.93;;;24.90;72.00;;;;;;4994666;28;20228;-44
2021/07/23 07:27:58;;;;;;;16.02;12.73;;;24.90;72.10;;;;;;4995237;28;20320;-44
2021/07/23 07:30:25;;;;;;;35.92;13.70;;;23.80;71.00;;;;;;4993686;28;20235;-45
2021/07/23 07:32:52;;;;;;;27.30;12.20;;;23.80;71.40;;;;;;4995171;28;20214;-44
2021/07/23 07:35:18;;;;;;;16.35;12.25;;;24.00;71.90;;;;;;4994037;28;20228;-52
2021/07/23 07:37:45;;;;;;;13.48;10.10;;;23.90;72.00;;;;;;4995627;28;21067;-52
2021/07/23 07:40:11;;;;;;;15.18;9.75;;;24.20;72.30;;;;;;4996233;28;20212;-50
2021/07/23 07:42:38;;;;;;;12.38;9.50;;;24.40;71.60;;;;;;4995153;28;20353;-49
2021/07/23 07:45:05;;;;;;;11.55;8.85;;;24.60;71.80;;;;;;4994368;28;20220;-53
2021/07/23 07:47:32;;;;;;;11.82;9.35;;;24.70;71.90;;;;;;4989755;28;20575;-48
2021/07/23 07:49:58;;;;;;;12.00;9.50;;;24.80;71.90;;;;;;4987213;28;20345;-51
2021/07/23 07:52:24;;;;;;;11.40;8.90;;;24.90;72.00;;;;;;4988138;28;20505;-49
2021/07/23 07:54:51;;;;;;;11.52;9.15;;;25.00;72.00;;;;;;4993891;28;20637;-48
2021/07/23 07:57:17;;;;;;;11.63;9.00;;;25.00;71.90;;;;;;4993729;28;20290;-47
2021/07/23 07:59:44;;;;;;;12.23;9.55;;;25.00;71.80;;;;;;4994517;28;20219;-51
2021/07/23 08:02:10;;;;;;;10.45;8.98;;;25.10;71.90;;;;;;4993082;28;20210;-50
2021/07/23 08:04:37;;;;;;;10.80;8.40;;;25.10;71.80;;;;;;4993456;28;20225;-52
2021/07/23 08:07:06;;;;;;;11.05;9.32;;;25.10;71.90;;;;;;4992904;28;20211;-49
2021/07/23 08:09:37;;;;;;;13.23;9.35;;;25.10;72.00;;;;;;4994471;28;20228;-53
2021/07/23 08:12:04;;;;;;;10.82;8.45;;;25.10;71.80;;;;;;4991157;28;20290;-50
2021/07/23 08:14:30;;;;;;;10.82;8.95;;;25.20;72.70;;;;;;4993893;28;20230;-56
2021/07/23 08:16:56;;;;;;;10.85;9.27;;;25.20;72.20;;;;;;4992241;28;20211;-51
2021/07/23 08:19:23;;;;;;;14.38;9.38;;;25.20;72.30;;;;;;4991272;28;20218;-51
2021/07/23 08:21:49;;;;;;;9.48;8.50;;;25.20;72.30;;;;;;4992077;28;20611;-48
2021/07/23 08:24:16;;;;;;;11.38;8.70;;;25.20;72.20;;;;;;4993311;28;20654;-52
2021/07/23 08:26:42;;;;;;;10.25;8.27;;;25.20;72.20;;;;;;4993593;28;20623;-49
2021/07/23 08:29:09;;;;;;;10.77;8.57;;;25.30;72.00;;;;;;4991973;28;20692;-52
2021/07/23 08:31:36;;;;;;;9.52;7.80;;;25.20;72.20;;;;;;5002962;28;20329;-49
2021/07/23 08:34:02;;;;;;;11.68;9.07;;;25.20;72.30;;;;;;4994447;28;20331;-48
2021/07/23 08:36:28;;;;;;;9.43;7.95;;;25.30;72.30;;;;;;4995472;28;20295;-50
2021/07/23 08:38:55;;;;;;;9.27;8.13;;;25.30;72.30;;;;;;4994724;28;20295;-49
2021/07/23 08:41:21;;;;;;;10.55;8.63;;;25.30;72.30;;;;;;4985211;28;20206;-49
2021/07/23 08:43:48;;;;;;;10.55;9.45;;;25.30;72.30;;;;;;4990039;28;20254;-46
2021/07/23 08:46:15;;;;;;;9.90;8.80;;;25.30;72.30;;;;;;4993880;28;20295;-44
2021/07/23 08:48:41;;;;;;;9.85;8.63;;;25.30;72.30;;;;;;4997285;28;20208;-45
2021/07/23 08:51:07;;;;;;;9.32;8.18;;;25.30;72.30;;;;;;4997366;28;20221;-45
2021/07/23 08:53:34;;;;;;;9.68;8.32;;;25.30;72.30;;;;;;4992627;28;20204;-46
2021/07/23 08:56:01;;;;;;;10.00;8.60;;;25.30;72.30;;;;;;4989991;28;20691;-50
2021/07/23 08:58:28;;;;;;;9.10;8.02;;;25.30;72.30;;;;;;4989491;28;20294;-49
2021/07/23 09:00:54;;;;;;;9.27;8.38;;;25.40;72.40;;;;;;4990940;28;20204;-48
2021/07/23 09:03:21;;;;;;;9.20;8.15;;;25.40;72.40;;;;;;4993283;28;20210;-46
2021/07/23 09:05:47;;;;;;;8.80;7.90;;;25.40;72.40;;;;;;4994167;28;20224;-48
2021/07/23 09:08:14;;;;;;;8.73;7.75;;;25.40;72.40;;;;;;4993055;28;20199;-49
2021/07/23 09:10:40;;;;;;;9.90;8.38;;;25.40;72.40;;;;;;4992381;28;20231;-48
2021/07/23 09:13:07;;;;;;;8.50;7.63;;;25.40;72.40;;;;;;4993156;28;20207;-48
2021/07/23 09:15:33;;;;;;;8.40;7.57;;;25.40;72.40;;;;;;4993831;28;20235;-52
2021/07/23 09:18:00;;;;;;;10.80;7.90;;;25.40;72.40;;;;;;4993533;28;20276;-52
2021/07/23 09:20:26;;;;;;;8.77;7.88;;;25.40;72.40;;;;;;4993470;28;20290;-47
2021/07/23 09:22:52;;;;;;;9.65;8.23;;;25.40;72.40;;;;;;4993568;28;20206;-45
2021/07/23 09:25:19;;;;;;;9.43;7.82;;;25.40;72.40;;;;;;4993349;28;20223;-52
2021/07/23 09:27:45;;;;;;;8.48;7.68;;;25.40;72.40;;;;;;4993431;28;20200;-47
2021/07/23 09:30:13;;;;;;;8.65;7.65;;;25.40;72.40;;;;;;4983135;28;20258;-48
2021/07/23 09:32:39;;;;;;;8.77;7.85;;;25.40;73.10;;;;;;4987815;28;20582;-47
2021/07/23 09:35:06;;;;;;;9.18;8.27;;;25.40;72.40;;;;;;4993546;28;20594;-48
2021/07/23 09:37:32;;;;;;;8.90;8.05;;;25.40;72.40;;;;;;4993340;28;20204;-50
2021/07/23 09:39:58;;;;;;;8.65;7.75;;;25.40;72.40;;;;;;4992942;28;20551;-48
2021/07/23 09:42:25;;;;;;;9.35;8.40;;;25.40;72.40;;;;;;4992394;28;20686;-49
2021/07/23 09:44:51;;;;;;;8.10;7.30;;;25.40;72.40;;;;;;4992772;28;20303;-49
2021/07/23 09:47:18;;;;;;;8.00;7.30;;;25.40;72.40;;;;;;4992757;28;20215;-47
2021/07/23 09:49:45;;;;;;;8.18;7.38;;;25.40;72.30;;;;;;4992748;28;20243;-48
2021/07/23 09:52:12;;;;;;;8.20;7.40;;;25.40;72.20;;;;;;4992844;28;20676;-48
2021/07/23 09:54:40;;;;;;;9.23;7.75;;;25.40;72.30;;;;;;4992160;28;20216;-50
2021/07/23 09:57:06;;;;;;;8.15;7.43;;;25.40;72.20;;;;;;4992578;28;20254;-50
2021/07/23 09:59:32;;;;;;;8.60;7.68;;;25.40;72.30;;;;;;4992451;28;20207;-49
2021/07/23 10:01:59;;;;;;;8.10;7.38;;;25.40;72.30;;;;;;4993017;28;20210;-52
2021/07/23 10:04:30;;;;;;;9.20;8.30;;;25.40;72.10;;;;;;4987244;28;20223;-54
2021/07/23 10:06:57;;;;;;;9.52;8.48;;;25.40;72.40;;;;;;4991612;28;20208;-48
2021/07/23 10:09:26;;;;;;;9.93;8.07;;;25.40;72.40;;;;;;4991206;28;20717;-47
2021/07/23 10:11:52;;;;;;;9.10;8.25;;;25.40;72.40;;;;;;4990121;28;20200;-48
2021/07/23 10:14:19;;;;;;;8.38;7.45;;;25.40;72.40;;;;;;4987685;28;20632;-47
2021/07/23 10:16:45;;;;;;;10.32;8.52;;;25.40;72.40;;;;;;4980060;28;20724;-49
2021/07/23 10:19:12;;;;;;;8.30;7.30;;;25.50;72.70;;;;;;4982781;28;20204;-49
2021/07/23 10:21:38;;;;;;;9.63;7.95;;;25.50;72.50;;;;;;4992562;28;20207;-48
2021/07/23 10:24:04;;;;;;;8.50;7.43;;;25.50;72.50;;;;;;5000215;28;20722;-62
2021/07/23 10:26:31;;;;;;;7.72;6.90;;;25.50;72.50;;;;;;4991072;28;20204;-60
2021/07/23 10:29:01;;;;;;;7.80;7.00;;;25.50;72.50;;;;;;4990884;28;20200;-54
2021/07/23 10:31:28;;;;;;;7.55;6.75;;;25.50;72.50;;;;;;4991720;28;20234;-50
2021/07/23 10:33:55;;;;;;;7.80;6.85;;;25.50;72.50;;;;;;4990664;28;20231;-55
2021/07/23 10:36:21;;;;;;;8.13;7.38;;;25.50;72.50;;;;;;4990630;28;20296;-57
2021/07/23 10:38:48;;;;;;;7.75;7.03;;;25.50;72.50;;;;;;4990679;28;20203;-46
2021/07/23 10:41:14;;;;;;;9.60;7.22;;;25.50;72.50;;;;;;4988657;28;20298;-45
2021/07/23 10:43:41;;;;;;;8.40;7.50;;;25.50;73.20;;;;;;4985998;28;20695;-48
2021/07/23 10:46:07;;;;;;;10.00;7.78;;;25.50;73.00;;;;;;4989266;28;20598;-46
2021/07/23 10:48:34;;;;;;;7.78;6.97;;;25.50;73.00;;;;;;4991900;28;21012;-45
2021/07/23 10:51:00;;;;;;;10.13;7.00;;;25.50;73.10;;;;;;5005058;28;20571;-49
2021/07/23 10:53:26;;;;;;;8.68;7.88;;;25.50;73.40;;;;;;4992095;28;20314;-48
2021/07/23 10:55:53;;;;;;;8.32;7.10;;;25.50;73.40;;;;;;4995259;28;20214;-46
2021/07/23 10:58:19;;;;;;;7.55;6.85;;;25.60;73.30;;;;;;5002766;28;20200;-47
2021/07/23 11:00:46;;;;;;;8.15;7.32;;;25.50;73.80;;;;;;4990033;28;20200;-49
2021/07/23 11:03:13;;;;;;;7.75;6.75;;;25.50;73.30;;;;;;4991806;28;20223;-51
2021/07/23 11:05:39;;;;;;;8.77;7.88;;;25.60;73.30;;;;;;4995065;28;20596;-46
2021/07/23 11:08:06;;;;;;;7.47;6.78;;;25.50;73.10;;;;;;4993105;28;20672;-51
2021/07/23 11:10:32;;;;;;;8.30;7.07;;;25.60;73.10;;;;;;4985803;28;20611;-51
2021/07/23 11:12:59;;;;;;;7.40;6.70;;;25.50;73.00;;;;;;4990984;28;20710;-50
2021/07/23 11:15:25;;;;;;;8.57;7.68;;;25.60;73.20;;;;;;4988062;28;20643;-47
2021/07/23 11:17:51;;;;;;;7.55;6.82;;;25.60;73.10;;;;;;4990048;28;20657;-52
2021/07/23 11:20:18;;;;;;;8.75;7.85;;;25.50;73.00;;;;;;4988738;28;20664;-49
2021/07/23 11:22:44;;;;;;;7.47;6.78;;;25.50;73.50;;;;;;4990229;28;20668;-50
2021/07/23 11:25:11;;;;;;;7.97;6.85;;;25.60;73.40;;;;;;4990107;28;20660;-51
2021/07/23 11:27:37;;;;;;;8.07;7.28;;;25.50;73.30;;;;;;4991082;28;20715;-48
2021/07/23 11:30:04;;;;;;;7.82;7.00;;;25.50;73.10;;;;;;4990518;28;20320;-46
2021/07/23 11:32:30;;;;;;;7.72;6.95;;;25.50;73.00;;;;;;4990096;28;20279;-47
2021/07/23 11:34:57;;;;;;;7.55;6.75;;;25.50;72.80;;;;;;4990527;28;20286;-49
2021/07/23 11:37:26;;;;;;;8.25;7.45;;;25.50;72.80;;;;;;4982967;28;20208;-49
2021/07/23 11:39:52;;;;;;;8.18;7.38;;;25.60;72.90;;;;;;4992977;28;20262;-51
2021/07/23 11:42:19;;;;;;;8.00;7.20;;;25.60;72.70;;;;;;4988511;28;20762;-49
2021/07/23 11:44:45;;;;;;;7.90;7.10;;;25.60;72.70;;;;;;4983056;28;20613;-49
2021/07/23 11:47:12;;;;;;;20.92;14.00;;;25.60;72.60;;;;;;4990291;28;20601;-46
2021/07/23 11:49:38;;;;;;;30.75;18.23;;;25.60;72.60;;;;;;4984877;28;20204;-46
2021/07/23 11:52:04;;;;;;;34.47;21.83;;;25.60;72.70;;;;;;4989766;28;20207;-48
2021/07/23 11:54:31;;;;;;;31.95;21.10;;;25.60;72.60;;;;;;4990957;28;20219;-44
2021/07/23 11:56:57;;;;;;;25.23;18.70;;;25.60;72.80;;;;;;4990638;28;20200;-49
2021/07/23 11:59:24;;;;;;;29.73;20.25;;;25.60;72.80;;;;;;4988262;28;20308;-45
2021/07/23 12:01:50;;;;;;;31.10;21.70;;;25.60;73.50;;;;;;4987146;28;20208;-48
2021/07/23 12:04:17;;;;;;;40.10;21.13;;;25.60;72.90;;;;;;4990518;28;20216;-47
2021/07/23 12:06:45;;;;;;;30.75;21.77;;;25.60;72.80;;;;;;4994781;28;20207;-46
2021/07/23 12:09:11;;;;;;;33.40;20.52;;;25.60;72.90;;;;;;4993865;28;20567;-46
2021/07/23 12:11:37;;;;;;;34.42;21.00;;;25.60;73.00;;;;;;4993147;28;20708;-46
2021/07/23 12:14:04;;;;;;;34.53;21.25;;;25.60;73.00;;;;;;4993467;28;20219;-46
2021/07/23 12:16:30;;;;;;;27.90;19.90;;;25.60;73.00;;;;;;4994928;28;20210;-51
2021/07/23 12:18:57;;;;;;;28.13;19.67;;;25.60;73.00;;;;;;4993972;28;20214;-48
2021/07/23 12:21:24;;;;;;;27.48;19.27;;;25.60;73.00;;;;;;4994547;28;20635;-46
2021/07/23 12:23:51;;;;;;;27.52;20.25;;;25.60;73.70;;;;;;4996830;28;20220;-61
2021/07/23 12:26:17;;;;;;;33.47;21.15;;;25.60;73.30;;;;;;4993059;28;20262;-47
2021/07/23 12:28:43;;;;;;;49.55;20.92;;;25.60;73.50;;;;;;4993466;28;20214;-48
2021/07/23 12:31:10;;;;;;;17.40;13.45;;;25.60;73.60;;;;;;4993606;28;20254;-53
2021/07/23 12:33:37;;;;;;;15.25;11.13;;;25.60;66.50;;;;;;4991002;28;20230;-53
2021/07/23 12:36:03;;;;;;;13.90;10.68;;;25.50;64.00;;;;;;4989404;28;20208;-53
2021/07/23 12:38:30;;;;;;;11.48;10.18;;;25.50;65.00;;;;;;4991683;28;20200;-52